sensor_id;sensor_type;location;lat;lon;timestamp;P1;durP1;ratioP1;P2;durP2;ratioP2
57947;SDS011;43754;56.992;24.292;2023-07-13T00:00:06;7.97;;;2.88;;
57947;SDS011;43754;56.992;24.292;2023-07-13T00:02:44;5.53;;;3.28;;
57947;SDS011;43754;56.992;24.292;2023-07-13T00:05:16;8.15;;;2.70;;
57947;SDS011;43754;56.992;24.292;2023-07-13T00:07:48;5.20;;;2.50;;
57947;SDS011;43754;56.992;24.292;2023-07-13T00:10:20;6.88;;;2.50;;
57947;SDS011;43754;56.992;24.292;2023-07-13T00:12:53;8.13;;;2.45;;
57947;SDS011;43754;56.992;24.292;2023-07-13T00:15:27;6.60;;;2.58;;
57947;SDS011;43754;56.992;24.292;2023-07-13T00:18:01;6.55;;;2.30;;
57947;SDS011;43754;56.992;24.292;2023-07-13T00:20:33;3.38;;;2.28;;
57947;SDS011;43754;56.992;24.292;2023-07-13T00:23:05;5.53;;;2.20;;
57947;SDS011;43754;56.992;24.292;2023-07-13T00:25:38;4.55;;;2.15;;
57947;SDS011;43754;56.992;24.292;2023-07-13T00:28:10;5.93;;;2.50;;
57947;SDS011;43754;56.992;24.292;2023-07-13T00:30:43;6.97;;;2.90;;
57947;SDS011;43754;56.992;24.292;2023-07-13T00:33:16;8.88;;;2.63;;
57947;SDS011;43754;56.992;24.292;2023-07-13T00:35:49;4.40;;;2.50;;
57947;SDS011;43754;56.992;24.292;2023-07-13T00:38:21;6.13;;;2.63;;
57947;SDS011;43754;56.992;24.292;2023-07-13T00:40:54;3.58;;;2.30;;
57947;SDS011;43754;56.992;24.292;2023-07-13T00:43:27;7.28;;;2.03;;
57947;SDS011;43754;56.992;24.292;2023-07-13T00:46:14;8.10;;;2.38;;
57947;SDS011;43754;56.992;24.292;2023-07-13T00:48:49;8.18;;;2.55;;
57947;SDS011;43754;56.992;24.292;2023-07-13T00:51:24;6.55;;;2.10;;
57947;SDS011;43754;56.992;24.292;2023-07-13T00:54:03;6.70;;;2.78;;
57947;SDS011;43754;56.992;24.292;2023-07-13T00:56:38;3.95;;;2.20;;
57947;SDS011;43754;56.992;24.292;2023-07-13T00:59:12;5.40;;;2.80;;
57947;SDS011;43754;56.992;24.292;2023-07-13T01:01:48;5.38;;;2.65;;
57947;SDS011;43754;56.992;24.292;2023-07-13T01:04:23;5.38;;;2.35;;
57947;SDS011;43754;56.992;24.292;2023-07-13T01:06:56;5.75;;;2.38;;
57947;SDS011;43754;56.992;24.292;2023-07-13T01:09:29;4.78;;;2.28;;
57947;SDS011;43754;56.992;24.292;2023-07-13T01:12:01;2.70;;;2.10;;
57947;SDS011;43754;56.992;24.292;2023-07-13T01:14:34;5.20;;;2.00;;
57947;SDS011;43754;56.992;24.292;2023-07-13T01:17:10;4.43;;;2.80;;
57947;SDS011;43754;56.992;24.292;2023-07-13T01:19:43;5.35;;;2.40;;
57947;SDS011;43754;56.992;24.292;2023-07-13T01:22:18;4.13;;;2.72;;
57947;SDS011;43754;56.992;24.292;2023-07-13T01:24:51;5.47;;;2.42;;
57947;SDS011;43754;56.992;24.292;2023-07-13T01:27:24;3.42;;;2.22;;
57947;SDS011;43754;56.992;24.292;2023-07-13T01:29:57;7.35;;;2.50;;
57947;SDS011;43754;56.992;24.292;2023-07-13T01:32:35;6.50;;;2.50;;
57947;SDS011;43754;56.992;24.292;2023-07-13T01:35:08;10.18;;;2.90;;
57947;SDS011;43754;56.992;24.292;2023-07-13T01:37:43;7.38;;;2.42;;
57947;SDS011;43754;56.992;24.292;2023-07-13T01:40:16;5.07;;;2.47;;
57947;SDS011;43754;56.992;24.292;2023-07-13T01:42:48;3.58;;;2.45;;
57947;SDS011;43754;56.992;24.292;2023-07-13T01:45:23;5.60;;;2.40;;
57947;SDS011;43754;56.992;24.292;2023-07-13T01:47:55;5.97;;;2.78;;
57947;SDS011;43754;56.992;24.292;2023-07-13T01:50:27;6.35;;;2.95;;
57947;SDS011;43754;56.992;24.292;2023-07-13T01:53:01;3.25;;;2.70;;
57947;SDS011;43754;56.992;24.292;2023-07-13T01:55:34;5.75;;;2.53;;
57947;SDS011;43754;56.992;24.292;2023-07-13T01:58:07;9.82;;;2.33;;
57947;SDS011;43754;56.992;24.292;2023-07-13T02:00:39;5.80;;;2.42;;
57947;SDS011;43754;56.992;24.292;2023-07-13T02:03:11;9.80;;;2.90;;
57947;SDS011;43754;56.992;24.292;2023-07-13T02:05:43;5.95;;;2.33;;
57947;SDS011;43754;56.992;24.292;2023-07-13T02:08:16;12.60;;;2.55;;
57947;SDS011;43754;56.992;24.292;2023-07-13T02:10:51;7.50;;;2.55;;
57947;SDS011;43754;56.992;24.292;2023-07-13T02:13:23;5.93;;;2.75;;
57947;SDS011;43754;56.992;24.292;2023-07-13T02:15:55;5.15;;;2.58;;
57947;SDS011;43754;56.992;24.292;2023-07-13T02:18:27;5.05;;;2.28;;
57947;SDS011;43754;56.992;24.292;2023-07-13T02:20:59;4.72;;;2.65;;
57947;SDS011;43754;56.992;24.292;2023-07-13T02:23:33;4.47;;;2.47;;
57947;SDS011;43754;56.992;24.292;2023-07-13T02:26:05;4.35;;;2.20;;
57947;SDS011;43754;56.992;24.292;2023-07-13T02:28:38;5.22;;;2.30;;
57947;SDS011;43754;56.992;24.292;2023-07-13T02:31:11;12.38;;;2.60;;
57947;SDS011;43754;56.992;24.292;2023-07-13T02:33:45;9.15;;;2.70;;
57947;SDS011;43754;56.992;24.292;2023-07-13T02:36:17;10.13;;;2.88;;
57947;SDS011;43754;56.992;24.292;2023-07-13T02:38:51;6.20;;;2.42;;
57947;SDS011;43754;56.992;24.292;2023-07-13T02:41:23;5.28;;;2.40;;
57947;SDS011;43754;56.992;24.292;2023-07-13T02:43:57;11.32;;;2.85;;
57947;SDS011;43754;56.992;24.292;2023-07-13T02:46:36;5.07;;;2.50;;
57947;SDS011;43754;56.992;24.292;2023-07-13T02:49:08;6.75;;;2.72;;
57947;SDS011;43754;56.992;24.292;2023-07-13T02:51:40;5.53;;;2.70;;
57947;SDS011;43754;56.992;24.292;2023-07-13T02:54:14;7.00;;;2.80;;
57947;SDS011;43754;56.992;24.292;2023-07-13T02:56:47;6.65;;;2.33;;
57947;SDS011;43754;56.992;24.292;2023-07-13T02:59:19;3.10;;;2.30;;
57947;SDS011;43754;56.992;24.292;2023-07-13T03:01:51;7.32;;;2.90;;
57947;SDS011;43754;56.992;24.292;2023-07-13T03:04:24;3.90;;;2.33;;
57947;SDS011;43754;56.992;24.292;2023-07-13T03:06:56;8.35;;;2.83;;
57947;SDS011;43754;56.992;24.292;2023-07-13T03:09:37;4.30;;;2.23;;
57947;SDS011;43754;56.992;24.292;2023-07-13T03:12:11;11.55;;;3.47;;
57947;SDS011;43754;56.992;24.292;2023-07-13T03:14:43;6.82;;;2.60;;
57947;SDS011;43754;56.992;24.292;2023-07-13T03:17:15;6.25;;;2.47;;
57947;SDS011;43754;56.992;24.292;2023-07-13T03:19:48;4.70;;;2.63;;
57947;SDS011;43754;56.992;24.292;2023-07-13T03:22:22;9.85;;;2.67;;
57947;SDS011;43754;56.992;24.292;2023-07-13T03:24:57;5.28;;;2.50;;
57947;SDS011;43754;56.992;24.292;2023-07-13T03:27:30;6.25;;;2.40;;
57947;SDS011;43754;56.992;24.292;2023-07-13T03:30:02;7.07;;;2.50;;
57947;SDS011;43754;56.992;24.292;2023-07-13T03:32:35;6.65;;;2.42;;
57947;SDS011;43754;56.992;24.292;2023-07-13T03:35:09;4.75;;;2.53;;
57947;SDS011;43754;56.992;24.292;2023-07-13T03:37:41;7.88;;;3.08;;
57947;SDS011;43754;56.992;24.292;2023-07-13T03:40:21;7.53;;;2.70;;
57947;SDS011;43754;56.992;24.292;2023-07-13T03:42:53;4.10;;;2.60;;
57947;SDS011;43754;56.992;24.292;2023-07-13T03:45:26;10.82;;;2.55;;
57947;SDS011;43754;56.992;24.292;2023-07-13T03:47:58;6.32;;;2.50;;
57947;SDS011;43754;56.992;24.292;2023-07-13T03:50:31;8.40;;;2.80;;
57947;SDS011;43754;56.992;24.292;2023-07-13T03:53:03;4.13;;;2.53;;
57947;SDS011;43754;56.992;24.292;2023-07-13T03:55:36;6.07;;;3.13;;
57947;SDS011;43754;56.992;24.292;2023-07-13T03:58:29;10.23;;;3.00;;
57947;SDS011;43754;56.992;24.292;2023-07-13T04:01:10;5.43;;;3.22;;
57947;SDS011;43754;56.992;24.292;2023-07-13T04:03:43;8.90;;;3.10;;
57947;SDS011;43754;56.992;24.292;2023-07-13T04:06:18;4.93;;;2.63;;
57947;SDS011;43754;56.992;24.292;2023-07-13T04:08:53;8.63;;;3.50;;
57947;SDS011;43754;56.992;24.292;2023-07-13T04:11:29;6.15;;;2.88;;
57947;SDS011;43754;56.992;24.292;2023-07-13T04:14:04;6.05;;;2.80;;
57947;SDS011;43754;56.992;24.292;2023-07-13T04:16:38;9.82;;;3.08;;
57947;SDS011;43754;56.992;24.292;2023-07-13T04:19:10;4.60;;;3.30;;
57947;SDS011;43754;56.992;24.292;2023-07-13T04:21:42;11.48;;;3.38;;
57947;SDS011;43754;56.992;24.292;2023-07-13T04:24:14;6.45;;;2.97;;
57947;SDS011;43754;56.992;24.292;2023-07-13T04:26:47;3.15;;;2.65;;
57947;SDS011;43754;56.992;24.292;2023-07-13T04:29:19;11.68;;;3.13;;
57947;SDS011;43754;56.992;24.292;2023-07-13T04:31:52;7.30;;;2.60;;
57947;SDS011;43754;56.992;24.292;2023-07-13T04:34:24;3.90;;;2.78;;
57947;SDS011;43754;56.992;24.292;2023-07-13T04:36:56;9.05;;;3.25;;
57947;SDS011;43754;56.992;24.292;2023-07-13T04:39:28;13.95;;;3.42;;
57947;SDS011;43754;56.992;24.292;2023-07-13T04:42:02;12.35;;;3.10;;
57947;SDS011;43754;56.992;24.292;2023-07-13T04:44:34;13.80;;;3.42;;
57947;SDS011;43754;56.992;24.292;2023-07-13T04:47:06;7.18;;;3.65;;
57947;SDS011;43754;56.992;24.292;2023-07-13T04:49:38;9.38;;;3.60;;
57947;SDS011;43754;56.992;24.292;2023-07-13T04:52:11;16.70;;;4.13;;
57947;SDS011;43754;56.992;24.292;2023-07-13T04:54:43;13.02;;;3.60;;
57947;SDS011;43754;56.992;24.292;2023-07-13T04:57:17;13.45;;;3.58;;
57947;SDS011;43754;56.992;24.292;2023-07-13T04:59:49;5.78;;;3.83;;
57947;SDS011;43754;56.992;24.292;2023-07-13T05:02:21;7.35;;;3.53;;
57947;SDS011;43754;56.992;24.292;2023-07-13T05:04:53;9.77;;;3.30;;
57947;SDS011;43754;56.992;24.292;2023-07-13T05:07:25;3.70;;;3.28;;
57947;SDS011;43754;56.992;24.292;2023-07-13T05:09:58;10.13;;;3.70;;
57947;SDS011;43754;56.992;24.292;2023-07-13T05:12:31;9.60;;;4.30;;
57947;SDS011;43754;56.992;24.292;2023-07-13T05:15:03;9.50;;;3.70;;
57947;SDS011;43754;56.992;24.292;2023-07-13T05:17:36;6.45;;;4.35;;
57947;SDS011;43754;56.992;24.292;2023-07-13T05:20:10;7.00;;;3.60;;
57947;SDS011;43754;56.992;24.292;2023-07-13T05:22:42;7.82;;;3.67;;
57947;SDS011;43754;56.992;24.292;2023-07-13T05:25:15;8.48;;;4.05;;
57947;SDS011;43754;56.992;24.292;2023-07-13T05:27:48;7.22;;;3.70;;
57947;SDS011;43754;56.992;24.292;2023-07-13T05:30:21;7.32;;;3.30;;
57947;SDS011;43754;56.992;24.292;2023-07-13T05:32:53;9.20;;;3.42;;
57947;SDS011;43754;56.992;24.292;2023-07-13T05:35:25;6.30;;;3.53;;
57947;SDS011;43754;56.992;24.292;2023-07-13T05:37:57;8.52;;;3.63;;
57947;SDS011;43754;56.992;24.292;2023-07-13T05:40:29;5.68;;;3.17;;
57947;SDS011;43754;56.992;24.292;2023-07-13T05:43:02;7.50;;;3.70;;
57947;SDS011;43754;56.992;24.292;2023-07-13T05:45:34;10.55;;;3.95;;
57947;SDS011;43754;56.992;24.292;2023-07-13T05:48:06;9.15;;;3.70;;
57947;SDS011;43754;56.992;24.292;2023-07-13T05:50:39;6.10;;;3.35;;
57947;SDS011;43754;56.992;24.292;2023-07-13T05:53:11;8.45;;;3.20;;
57947;SDS011;43754;56.992;24.292;2023-07-13T05:55:44;5.38;;;3.40;;
57947;SDS011;43754;56.992;24.292;2023-07-13T05:58:26;4.30;;;3.05;;
57947;SDS011;43754;56.992;24.292;2023-07-13T06:00:59;4.20;;;3.22;;
57947;SDS011;43754;56.992;24.292;2023-07-13T06:03:32;6.82;;;3.30;;
57947;SDS011;43754;56.992;24.292;2023-07-13T06:06:05;5.75;;;3.05;;
57947;SDS011;43754;56.992;24.292;2023-07-13T06:08:38;10.43;;;3.60;;
57947;SDS011;43754;56.992;24.292;2023-07-13T06:11:12;8.35;;;3.80;;
57947;SDS011;43754;56.992;24.292;2023-07-13T06:13:48;4.97;;;3.25;;
57947;SDS011;43754;56.992;24.292;2023-07-13T06:16:20;6.85;;;2.90;;
57947;SDS011;43754;56.992;24.292;2023-07-13T06:18:52;8.65;;;3.72;;
57947;SDS011;43754;56.992;24.292;2023-07-13T06:21:24;9.23;;;3.42;;
57947;SDS011;43754;56.992;24.292;2023-07-13T06:23:56;6.07;;;3.45;;
57947;SDS011;43754;56.992;24.292;2023-07-13T06:26:28;7.25;;;3.65;;
57947;SDS011;43754;56.992;24.292;2023-07-13T06:29:02;8.45;;;3.55;;
57947;SDS011;43754;56.992;24.292;2023-07-13T06:31:34;3.25;;;2.95;;
57947;SDS011;43754;56.992;24.292;2023-07-13T06:34:06;3.05;;;2.72;;
57947;SDS011;43754;56.992;24.292;2023-07-13T06:36:38;5.13;;;2.65;;
57947;SDS011;43754;56.992;24.292;2023-07-13T06:39:11;2.83;;;2.63;;
57947;SDS011;43754;56.992;24.292;2023-07-13T06:41:43;5.13;;;2.75;;
57947;SDS011;43754;56.992;24.292;2023-07-13T06:44:19;5.00;;;3.08;;
57947;SDS011;43754;56.992;24.292;2023-07-13T06:46:51;5.50;;;2.80;;
57947;SDS011;43754;56.992;24.292;2023-07-13T06:49:23;3.47;;;2.78;;
57947;SDS011;43754;56.992;24.292;2023-07-13T06:51:55;5.28;;;2.80;;
57947;SDS011;43754;56.992;24.292;2023-07-13T06:54:27;4.05;;;2.85;;
57947;SDS011;43754;56.992;24.292;2023-07-13T06:56:59;3.92;;;2.60;;
57947;SDS011;43754;56.992;24.292;2023-07-13T06:59:33;4.53;;;2.90;;
57947;SDS011;43754;56.992;24.292;2023-07-13T07:02:05;3.85;;;3.15;;
57947;SDS011;43754;56.992;24.292;2023-07-13T07:04:37;7.07;;;2.83;;
57947;SDS011;43754;56.992;24.292;2023-07-13T07:07:09;7.53;;;2.88;;
57947;SDS011;43754;56.992;24.292;2023-07-13T07:09:41;5.45;;;2.35;;
57947;SDS011;43754;56.992;24.292;2023-07-13T07:12:13;4.30;;;2.78;;
57947;SDS011;43754;56.992;24.292;2023-07-13T07:14:47;4.15;;;2.90;;
57947;SDS011;43754;56.992;24.292;2023-07-13T07:17:19;3.00;;;2.38;;
57947;SDS011;43754;56.992;24.292;2023-07-13T07:19:54;7.97;;;2.60;;
57947;SDS011;43754;56.992;24.292;2023-07-13T07:22:26;4.30;;;2.63;;
57947;SDS011;43754;56.992;24.292;2023-07-13T07:24:59;3.10;;;2.60;;
57947;SDS011;43754;56.992;24.292;2023-07-13T07:27:31;3.22;;;2.30;;
57947;SDS011;43754;56.992;24.292;2023-07-13T07:30:08;4.72;;;2.40;;
57947;SDS011;43754;56.992;24.292;2023-07-13T07:32:44;4.75;;;2.75;;
57947;SDS011;43754;56.992;24.292;2023-07-13T07:35:19;5.93;;;2.60;;
57947;SDS011;43754;56.992;24.292;2023-07-13T07:37:51;3.55;;;2.60;;
57947;SDS011;43754;56.992;24.292;2023-07-13T07:40:23;3.95;;;2.30;;
57947;SDS011;43754;56.992;24.292;2023-07-13T07:42:58;5.35;;;2.58;;
57947;SDS011;43754;56.992;24.292;2023-07-13T07:45:31;6.20;;;2.65;;
57947;SDS011;43754;56.992;24.292;2023-07-13T07:48:04;6.78;;;2.70;;
57947;SDS011;43754;56.992;24.292;2023-07-13T07:50:36;4.93;;;2.80;;
57947;SDS011;43754;56.992;24.292;2023-07-13T07:53:10;11.80;;;2.53;;
57947;SDS011;43754;56.992;24.292;2023-07-13T07:55:42;9.73;;;2.72;;
57947;SDS011;43754;56.992;24.292;2023-07-13T07:58:17;8.57;;;2.63;;
57947;SDS011;43754;56.992;24.292;2023-07-13T08:01:10;5.07;;;2.47;;
57947;SDS011;43754;56.992;24.292;2023-07-13T08:03:45;3.28;;;2.58;;
57947;SDS011;43754;56.992;24.292;2023-07-13T08:06:20;4.43;;;2.60;;
57947;SDS011;43754;56.992;24.292;2023-07-13T08:08:56;3.53;;;2.45;;
57947;SDS011;43754;56.992;24.292;2023-07-13T08:11:28;4.32;;;2.50;;
57947;SDS011;43754;56.992;24.292;2023-07-13T08:14:03;4.70;;;2.58;;
57947;SDS011;43754;56.992;24.292;2023-07-13T08:16:36;4.28;;;2.78;;
57947;SDS011;43754;56.992;24.292;2023-07-13T08:19:08;4.00;;;2.90;;
57947;SDS011;43754;56.992;24.292;2023-07-13T08:21:41;5.90;;;3.00;;
57947;SDS011;43754;56.992;24.292;2023-07-13T08:24:14;6.65;;;2.88;;
57947;SDS011;43754;56.992;24.292;2023-07-13T08:26:46;5.85;;;2.83;;
57947;SDS011;43754;56.992;24.292;2023-07-13T08:29:18;5.93;;;2.30;;
57947;SDS011;43754;56.992;24.292;2023-07-13T08:31:53;3.92;;;2.92;;
57947;SDS011;43754;56.992;24.292;2023-07-13T08:34:25;3.08;;;2.55;;
57947;SDS011;43754;56.992;24.292;2023-07-13T08:36:57;6.15;;;2.80;;
57947;SDS011;43754;56.992;24.292;2023-07-13T08:39:29;5.90;;;2.38;;
57947;SDS011;43754;56.992;24.292;2023-07-13T08:42:04;3.88;;;2.90;;
57947;SDS011;43754;56.992;24.292;2023-07-13T08:44:45;5.35;;;2.63;;
57947;SDS011;43754;56.992;24.292;2023-07-13T08:47:27;4.13;;;2.42;;
57947;SDS011;43754;56.992;24.292;2023-07-13T08:50:02;4.53;;;2.80;;
57947;SDS011;43754;56.992;24.292;2023-07-13T08:52:35;5.75;;;2.67;;
57947;SDS011;43754;56.992;24.292;2023-07-13T08:55:11;5.07;;;2.58;;
57947;SDS011;43754;56.992;24.292;2023-07-13T08:57:46;3.38;;;2.40;;
57947;SDS011;43754;56.992;24.292;2023-07-13T09:00:24;5.32;;;2.25;;
57947;SDS011;43754;56.992;24.292;2023-07-13T09:05:44;3.67;;;1.98;;
57947;SDS011;43754;56.992;24.292;2023-07-13T09:08:27;4.33;;;2.93;;
57947;SDS011;43754;56.992;24.292;2023-07-13T09:11:12;5.30;;;2.60;;
57947;SDS011;43754;56.992;24.292;2023-07-13T09:14:01;4.75;;;2.75;;
57947;SDS011;43754;56.992;24.292;2023-07-13T09:16:37;7.20;;;2.15;;
57947;SDS011;43754;56.992;24.292;2023-07-13T09:19:14;6.03;;;2.35;;
57947;SDS011;43754;56.992;24.292;2023-07-13T09:21:52;4.13;;;1.90;;
57947;SDS011;43754;56.992;24.292;2023-07-13T09:24:31;2.78;;;1.70;;
57947;SDS011;43754;56.992;24.292;2023-07-13T09:27:11;6.72;;;2.20;;
57947;SDS011;43754;56.992;24.292;2023-07-13T09:29:49;6.53;;;1.88;;
57947;SDS011;43754;56.992;24.292;2023-07-13T09:32:29;3.45;;;2.25;;
57947;SDS011;43754;56.992;24.292;2023-07-13T09:35:07;5.53;;;2.20;;
57947;SDS011;43754;56.992;24.292;2023-07-13T09:37:43;4.50;;;2.42;;
57947;SDS011;43754;56.992;24.292;2023-07-13T09:40:18;2.05;;;1.70;;
57947;SDS011;43754;56.992;24.292;2023-07-13T09:42:56;3.10;;;1.73;;
57947;SDS011;43754;56.992;24.292;2023-07-13T09:45:34;4.78;;;2.08;;
57947;SDS011;43754;56.992;24.292;2023-07-13T09:48:10;23.52;;;7.13;;
57947;SDS011;43754;56.992;24.292;2023-07-13T09:50:46;3.58;;;1.85;;
57947;SDS011;43754;56.992;24.292;2023-07-13T09:53:19;9.43;;;4.25;;
57947;SDS011;43754;56.992;24.292;2023-07-13T09:55:51;2.63;;;1.77;;
57947;SDS011;43754;56.992;24.292;2023-07-13T09:58:25;9.65;;;3.05;;
57947;SDS011;43754;56.992;24.292;2023-07-13T10:01:01;8.93;;;2.60;;
57947;SDS011;43754;56.992;24.292;2023-07-13T10:03:40;5.55;;;2.17;;
57947;SDS011;43754;56.992;24.292;2023-07-13T10:06:26;3.28;;;1.60;;
57947;SDS011;43754;56.992;24.292;2023-07-13T10:08:58;3.38;;;1.80;;
57947;SDS011;43754;56.992;24.292;2023-07-13T10:11:30;12.60;;;2.75;;
57947;SDS011;43754;56.992;24.292;2023-07-13T10:14:09;10.50;;;2.63;;
57947;SDS011;43754;56.992;24.292;2023-07-13T10:16:44;3.63;;;1.98;;
57947;SDS011;43754;56.992;24.292;2023-07-13T10:19:19;3.05;;;1.85;;
57947;SDS011;43754;56.992;24.292;2023-07-13T10:22:00;1.73;;;1.60;;
57947;SDS011;43754;56.992;24.292;2023-07-13T10:24:37;7.35;;;1.65;;
57947;SDS011;43754;56.992;24.292;2023-07-13T10:27:12;4.88;;;2.22;;
57947;SDS011;43754;56.992;24.292;2023-07-13T10:29:49;10.07;;;2.40;;
57947;SDS011;43754;56.992;24.292;2023-07-13T10:32:25;5.53;;;2.55;;
57947;SDS011;43754;56.992;24.292;2023-07-13T10:34:58;2.38;;;1.65;;
57947;SDS011;43754;56.992;24.292;2023-07-13T10:37:38;1.75;;;1.33;;
57947;SDS011;43754;56.992;24.292;2023-07-13T10:40:15;2.28;;;1.67;;
57947;SDS011;43754;56.992;24.292;2023-07-13T10:42:51;5.78;;;1.95;;
57947;SDS011;43754;56.992;24.292;2023-07-13T10:45:26;54.13;;;3.90;;
57947;SDS011;43754;56.992;24.292;2023-07-13T10:48:01;7.45;;;1.70;;
57947;SDS011;43754;56.992;24.292;2023-07-13T10:50:35;4.22;;;1.75;;
57947;SDS011;43754;56.992;24.292;2023-07-13T10:53:19;12.27;;;2.50;;
57947;SDS011;43754;56.992;24.292;2023-07-13T10:55:58;5.07;;;1.55;;
57947;SDS011;43754;56.992;24.292;2023-07-13T10:58:32;5.72;;;1.30;;
57947;SDS011;43754;56.992;24.292;2023-07-13T11:01:09;16.67;;;2.05;;
57947;SDS011;43754;56.992;24.292;2023-07-13T11:03:49;7.40;;;1.60;;
57947;SDS011;43754;56.992;24.292;2023-07-13T11:06:30;6.90;;;2.17;;
57947;SDS011;43754;56.992;24.292;2023-07-13T11:09:19;5.03;;;2.00;;
57947;SDS011;43754;56.992;24.292;2023-07-13T11:12:09;4.13;;;1.20;;
57947;SDS011;43754;56.992;24.292;2023-07-13T11:15:02;4.85;;;1.48;;
57947;SDS011;43754;56.992;24.292;2023-07-13T11:17:49;7.95;;;1.58;;
57947;SDS011;43754;56.992;24.292;2023-07-13T11:20:31;3.67;;;1.05;;
57947;SDS011;43754;56.992;24.292;2023-07-13T11:23:15;4.97;;;1.10;;
57947;SDS011;43754;56.992;24.292;2023-07-13T11:25:53;3.22;;;1.33;;
57947;SDS011;43754;56.992;24.292;2023-07-13T11:28:25;1.60;;;0.90;;
57947;SDS011;43754;56.992;24.292;2023-07-13T11:31:13;4.85;;;1.17;;
57947;SDS011;43754;56.992;24.292;2023-07-13T11:33:51;2.90;;;0.93;;
57947;SDS011;43754;56.992;24.292;2023-07-13T11:36:30;4.40;;;0.90;;
57947;SDS011;43754;56.992;24.292;2023-07-13T11:39:11;3.33;;;1.20;;
57947;SDS011;43754;56.992;24.292;2023-07-13T11:41:52;2.17;;;0.95;;
57947;SDS011;43754;56.992;24.292;2023-07-13T11:44:29;3.92;;;1.17;;
57947;SDS011;43754;56.992;24.292;2023-07-13T11:47:07;3.05;;;0.73;;
57947;SDS011;43754;56.992;24.292;2023-07-13T11:49:43;3.95;;;0.85;;
57947;SDS011;43754;56.992;24.292;2023-07-13T11:52:19;2.20;;;1.00;;
57947;SDS011;43754;56.992;24.292;2023-07-13T11:54:53;1.88;;;1.00;;
57947;SDS011;43754;56.992;24.292;2023-07-13T11:57:29;1.38;;;0.80;;
57947;SDS011;43754;56.992;24.292;2023-07-13T12:00:10;2.72;;;0.80;;
57947;SDS011;43754;56.992;24.292;2023-07-13T12:02:47;2.78;;;0.80;;
57947;SDS011;43754;56.992;24.292;2023-07-13T12:05:21;5.47;;;1.23;;
57947;SDS011;43754;56.992;24.292;2023-07-13T12:07:54;4.10;;;1.00;;
57947;SDS011;43754;56.992;24.292;2023-07-13T12:10:27;3.17;;;1.10;;
57947;SDS011;43754;56.992;24.292;2023-07-13T12:13:04;6.40;;;0.98;;
57947;SDS011;43754;56.992;24.292;2023-07-13T12:15:39;2.65;;;1.20;;
57947;SDS011;43754;56.992;24.292;2023-07-13T12:18:13;3.15;;;0.70;;
57947;SDS011;43754;56.992;24.292;2023-07-13T12:20:47;1.73;;;0.98;;
57947;SDS011;43754;56.992;24.292;2023-07-13T12:23:21;2.30;;;1.15;;
57947;SDS011;43754;56.992;24.292;2023-07-13T12:25:57;2.22;;;1.10;;
57947;SDS011;43754;56.992;24.292;2023-07-13T12:28:32;5.05;;;1.10;;
57947;SDS011;43754;56.992;24.292;2023-07-13T12:31:18;7.40;;;1.52;;
57947;SDS011;43754;56.992;24.292;2023-07-13T12:36:30;2.00;;;0.80;;
57947;SDS011;43754;56.992;24.292;2023-07-13T12:39:11;2.15;;;0.82;;
57947;SDS011;43754;56.992;24.292;2023-07-13T12:41:46;1.30;;;0.70;;
57947;SDS011;43754;56.992;24.292;2023-07-13T12:44:22;1.65;;;0.90;;
57947;SDS011;43754;56.992;24.292;2023-07-13T12:46:59;1.30;;;0.70;;
57947;SDS011;43754;56.992;24.292;2023-07-13T12:49:39;4.53;;;1.20;;
57947;SDS011;43754;56.992;24.292;2023-07-13T12:52:14;2.53;;;0.80;;
57947;SDS011;43754;56.992;24.292;2023-07-13T12:54:54;4.85;;;1.10;;
57947;SDS011;43754;56.992;24.292;2023-07-13T12:57:38;1.47;;;0.90;;
57947;SDS011;43754;56.992;24.292;2023-07-13T13:00:21;1.67;;;1.00;;
57947;SDS011;43754;56.992;24.292;2023-07-13T13:02:56;2.35;;;0.75;;
57947;SDS011;43754;56.992;24.292;2023-07-13T13:05:46;3.58;;;1.20;;
57947;SDS011;43754;56.992;24.292;2023-07-13T13:08:18;2.75;;;0.90;;
57947;SDS011;43754;56.992;24.292;2023-07-13T13:10:51;1.67;;;0.82;;
57947;SDS011;43754;56.992;24.292;2023-07-13T13:13:23;2.72;;;0.98;;
57947;SDS011;43754;56.992;24.292;2023-07-13T13:16:00;2.63;;;0.98;;
57947;SDS011;43754;56.992;24.292;2023-07-13T13:18:34;2.80;;;0.70;;
57947;SDS011;43754;56.992;24.292;2023-07-13T13:21:08;1.95;;;0.68;;
57947;SDS011;43754;56.992;24.292;2023-07-13T13:23:41;1.92;;;0.82;;
57947;SDS011;43754;56.992;24.292;2023-07-13T13:26:14;2.20;;;0.93;;
57947;SDS011;43754;56.992;24.292;2023-07-13T13:28:50;2.75;;;0.80;;
57947;SDS011;43754;56.992;24.292;2023-07-13T13:31:23;1.50;;;0.82;;
57947;SDS011;43754;56.992;24.292;2023-07-13T13:33:55;3.67;;;1.00;;
57947;SDS011;43754;56.992;24.292;2023-07-13T13:36:27;2.70;;;0.95;;
57947;SDS011;43754;56.992;24.292;2023-07-13T13:38:59;1.55;;;0.90;;
57947;SDS011;43754;56.992;24.292;2023-07-13T13:41:33;2.00;;;0.80;;
57947;SDS011;43754;56.992;24.292;2023-07-13T13:44:08;3.50;;;0.70;;
57947;SDS011;43754;56.992;24.292;2023-07-13T13:46:42;3.67;;;1.10;;
57947;SDS011;43754;56.992;24.292;2023-07-13T13:49:17;3.40;;;1.00;;
57947;SDS011;43754;56.992;24.292;2023-07-13T13:51:53;1.27;;;0.90;;
57947;SDS011;43754;56.992;24.292;2023-07-13T13:54:26;0.93;;;0.90;;
57947;SDS011;43754;56.992;24.292;2023-07-13T13:56:58;3.50;;;1.20;;
57947;SDS011;43754;56.992;24.292;2023-07-13T13:59:31;2.28;;;1.10;;
57947;SDS011;43754;56.992;24.292;2023-07-13T14:02:09;3.60;;;0.98;;
57947;SDS011;43754;56.992;24.292;2023-07-13T14:04:52;3.08;;;1.20;;
57947;SDS011;43754;56.992;24.292;2023-07-13T14:07:28;6.30;;;1.60;;
57947;SDS011;43754;56.992;24.292;2023-07-13T14:10:01;3.33;;;1.10;;
57947;SDS011;43754;56.992;24.292;2023-07-13T14:12:33;3.17;;;1.08;;
57947;SDS011;43754;56.992;24.292;2023-07-13T14:15:06;3.75;;;1.17;;
57947;SDS011;43754;56.992;24.292;2023-07-13T14:20:22;3.58;;;1.30;;
57947;SDS011;43754;56.992;24.292;2023-07-13T14:22:55;4.30;;;1.10;;
57947;SDS011;43754;56.992;24.292;2023-07-13T14:25:27;3.03;;;1.40;;
57947;SDS011;43754;56.992;24.292;2023-07-13T14:28:00;4.28;;;1.10;;
57947;SDS011;43754;56.992;24.292;2023-07-13T14:30:42;3.05;;;1.00;;
57947;SDS011;43754;56.992;24.292;2023-07-13T14:33:15;1.80;;;1.10;;
57947;SDS011;43754;56.992;24.292;2023-07-13T14:35:48;6.50;;;1.33;;
57947;SDS011;43754;56.992;24.292;2023-07-13T14:38:21;1.95;;;1.08;;
57947;SDS011;43754;56.992;24.292;2023-07-13T14:40:53;3.40;;;0.95;;
57947;SDS011;43754;56.992;24.292;2023-07-13T14:43:25;4.10;;;1.27;;
57947;SDS011;43754;56.992;24.292;2023-07-13T14:45:59;6.35;;;1.35;;
57947;SDS011;43754;56.992;24.292;2023-07-13T14:48:33;5.63;;;1.15;;
57947;SDS011;43754;56.992;24.292;2023-07-13T14:51:07;4.85;;;1.50;;
57947;SDS011;43754;56.992;24.292;2023-07-13T14:53:41;3.30;;;1.00;;
57947;SDS011;43754;56.992;24.292;2023-07-13T14:56:13;10.27;;;1.27;;
57947;SDS011;43754;56.992;24.292;2023-07-13T14:58:46;2.05;;;1.05;;
57947;SDS011;43754;56.992;24.292;2023-07-13T15:01:18;2.28;;;1.02;;
57947;SDS011;43754;56.992;24.292;2023-07-13T15:03:53;3.10;;;1.05;;
57947;SDS011;43754;56.992;24.292;2023-07-13T15:06:25;3.60;;;1.10;;
57947;SDS011;43754;56.992;24.292;2023-07-13T15:08:57;3.63;;;2.75;;
57947;SDS011;43754;56.992;24.292;2023-07-13T15:11:29;5.57;;;1.20;;
57947;SDS011;43754;56.992;24.292;2023-07-13T15:14:01;7.10;;;1.05;;
57947;SDS011;43754;56.992;24.292;2023-07-13T15:16:34;3.58;;;0.80;;
57947;SDS011;43754;56.992;24.292;2023-07-13T15:19:09;2.80;;;0.80;;
57947;SDS011;43754;56.992;24.292;2023-07-13T15:21:42;3.75;;;1.10;;
57947;SDS011;43754;56.992;24.292;2023-07-13T15:24:14;3.38;;;1.30;;